sensor_id;sensor_type;location;lat;lon;timestamp;temperature;humidity
20795;DHT22;28087;-33.874;151.240;2022-12-18T00:00:04;18.20;99.90
20795;DHT22;28087;-33.874;151.240;2022-12-18T00:02:44;18.20;99.90
20795;DHT22;28087;-33.874;151.240;2022-12-18T00:05:22;18.10;99.90
20795;DHT22;28087;-33.874;151.240;2022-12-18T00:07:57;18.00;99.90
20795;DHT22;28087;-33.874;151.240;2022-12-18T00:10:40;17.90;99.90
20795;DHT22;28087;-33.874;151.240;2022-12-18T00:13:16;17.90;99.90
20795;DHT22;28087;-33.874;151.240;2022-12-18T00:15:53;17.80;99.90
20795;DHT22;28087;-33.874;151.240;2022-12-18T00:18:32;17.70;99.90
20795;DHT22;28087;-33.874;151.240;2022-12-18T00:21:13;17.80;99.90
20795;DHT22;28087;-33.874;151.240;2022-12-18T00:23:50;17.90;99.90
20795;DHT22;28087;-33.874;151.240;2022-12-18T00:37:05;18.10;99.90
20795;DHT22;28087;-33.874;151.240;2022-12-18T00:39:45;18.20;99.90
20795;DHT22;28087;-33.874;151.240;2022-12-18T00:53:14;17.80;99.90
20795;DHT22;28087;-33.874;151.240;2022-12-18T00:55:58;17.70;99.90
20795;DHT22;28087;-33.874;151.240;2022-12-18T00:58:34;17.70;99.90
20795;DHT22;28087;-33.874;151.240;2022-12-18T01:01:10;17.80;99.90
20795;DHT22;28087;-33.874;151.240;2022-12-18T01:03:47;17.80;99.90
20795;DHT22;28087;-33.874;151.240;2022-12-18T01:06:23;17.80;99.90
20795;DHT22;28087;-33.874;151.240;2022-12-18T01:09:01;17.90;99.90
20795;DHT22;28087;-33.874;151.240;2022-12-18T01:11:42;17.90;99.90
20795;DHT22;28087;-33.874;151.240;2022-12-18T01:14:19;18.00;99.90
20795;DHT22;28087;-33.874;151.240;2022-12-18T01:16:56;18.10;99.90
20795;DHT22;28087;-33.874;151.240;2022-12-18T01:22:13;18.10;99.90
20795;DHT22;28087;-33.874;151.240;2022-12-18T01:24:52;18.20;99.90
20795;DHT22;28087;-33.874;151.240;2022-12-18T01:27:28;18.10;99.90
20795;DHT22;28087;-33.874;151.240;2022-12-18T01:30:07;18.20;99.90
20795;DHT22;28087;-33.874;151.240;2022-12-18T01:32:44;18.30;99.90
20795;DHT22;28087;-33.874;151.240;2022-12-18T01:35:21;18.50;99.90
20795;DHT22;28087;-33.874;151.240;2022-12-18T01:56:24;18.00;99.90
20795;DHT22;28087;-33.874;151.240;2022-12-18T01:59:12;18.20;99.90
20795;DHT22;28087;-33.874;151.240;2022-12-18T02:01:49;18.10;99.90
20795;DHT22;28087;-33.874;151.240;2022-12-18T02:04:31;18.10;99.90
20795;DHT22;28087;-33.874;151.240;2022-12-18T02:55:32;19.20;99.90
20795;DHT22;28087;-33.874;151.240;2022-12-18T02:58:18;19.10;99.90
20795;DHT22;28087;-33.874;151.240;2022-12-18T03:14:25;19.00;99.90
20795;DHT22;28087;-33.874;151.240;2022-12-18T03:17:04;19.10;99.90
20795;DHT22;28087;-33.874;151.240;2022-12-18T03:19:42;19.10;99.90
20795;DHT22;28087;-33.874;151.240;2022-12-18T03:22:20;19.30;99.90
20795;DHT22;28087;-33.874;151.240;2022-12-18T03:24:57;19.30;99.90
20795;DHT22;28087;-33.874;151.240;2022-12-18T03:27:40;19.10;99.90
20795;DHT22;28087;-33.874;151.240;2022-12-18T03:33:05;19.00;99.90
20795;DHT22;28087;-33.874;151.240;2022-12-18T03:35:47;18.90;99.90
20795;DHT22;28087;-33.874;151.240;2022-12-18T03:38:23;18.80;99.90
20795;DHT22;28087;-33.874;151.240;2022-12-18T03:57:24;18.90;99.90
20795;DHT22;28087;-33.874;151.240;2022-12-18T04:00:09;18.80;99.90
20795;DHT22;28087;-33.874;151.240;2022-12-18T04:08:24;18.80;99.90
20795;DHT22;28087;-33.874;151.240;2022-12-18T04:11:08;18.90;99.90
20795;DHT22;28087;-33.874;151.240;2022-12-18T04:13:47;18.80;99.90
20795;DHT22;28087;-33.874;151.240;2022-12-18T04:16:26;18.90;99.90
20795;DHT22;28087;-33.874;151.240;2022-12-18T04:19:08;19.00;99.90
20795;DHT22;28087;-33.874;151.240;2022-12-18T04:21:46;19.10;99.90
20795;DHT22;28087;-33.874;151.240;2022-12-18T04:24:27;19.20;99.90
20795;DHT22;28087;-33.874;151.240;2022-12-18T04:32:28;19.30;99.90
20795;DHT22;28087;-33.874;151.240;2022-12-18T04:35:07;19.30;99.90
20795;DHT22;28087;-33.874;151.240;2022-12-18T04:37:46;19.30;99.90
20795;DHT22;28087;-33.874;151.240;2022-12-18T04:40:27;19.30;99.90
20795;DHT22;28087;-33.874;151.240;2022-12-18T04:43:06;19.40;99.90
20795;DHT22;28087;-33.874;151.240;2022-12-18T04:45:43;19.40;99.90
20795;DHT22;28087;-33.874;151.240;2022-12-18T04:48:19;19.10;99.90
20795;DHT22;28087;-33.874;151.240;2022-12-18T04:50:57;19.10;99.90
20795;DHT22;28087;-33.874;151.240;2022-12-18T04:56:11;19.40;99.90
20795;DHT22;28087;-33.874;151.240;2022-12-18T04:58:48;19.40;99.90
20795;DHT22;28087;-33.874;151.240;2022-12-18T05:01:25;19.40;99.90
20795;DHT22;28087;-33.874;151.240;2022-12-18T05:06:45;19.50;99.90
20795;DHT22;28087;-33.874;151.240;2022-12-18T05:12:01;19.50;99.90
20795;DHT22;28087;-33.874;151.240;2022-12-18T05:14:37;19.60;99.90
20795;DHT22;28087;-33.874;151.240;2022-12-18T05:22:32;19.40;99.90
20795;DHT22;28087;-33.874;151.240;2022-12-18T05:40:46;19.20;99.90
20795;DHT22;28087;-33.874;151.240;2022-12-18T05:54:00;19.00;99.90
20795;DHT22;28087;-33.874;151.240;2022-12-18T05:56:36;19.00;99.90
20795;DHT22;28087;-33.874;151.240;2022-12-18T05:59:18;18.90;99.90
20795;DHT22;28087;-33.874;151.240;2022-12-18T06:01:55;18.80;99.90
20795;DHT22;28087;-33.874;151.240;2022-12-18T06:04:38;19.00;99.90
20795;DHT22;28087;-33.874;151.240;2022-12-18T06:07:14;19.10;99.90
20795;DHT22;28087;-33.874;151.240;2022-12-18T06:10:03;19.20;99.90
20795;DHT22;28087;-33.874;151.240;2022-12-18T06:33:50;19.00;99.90
20795;DHT22;28087;-33.874;151.240;2022-12-18T06:39:02;18.90;99.90
20795;DHT22;28087;-33.874;151.240;2022-12-18T06:41:44;18.90;99.90
20795;DHT22;28087;-33.874;151.240;2022-12-18T06:52:17;18.80;99.90
20795;DHT22;28087;-33.874;151.240;2022-12-18T06:55:00;19.10;99.90
20795;DHT22;28087;-33.874;151.240;2022-12-18T07:00:17;19.00;99.90
20795;DHT22;28087;-33.874;151.240;2022-12-18T07:31:53;19.00;99.90
20795;DHT22;28087;-33.874;151.240;2022-12-18T07:39:45;18.70;99.90
20795;DHT22;28087;-33.874;151.240;2022-12-18T07:45:10;18.70;99.90
20795;DHT22;28087;-33.874;151.240;2022-12-18T07:47:46;18.70;99.90
20795;DHT22;28087;-33.874;151.240;2022-12-18T07:50:22;18.70;99.90
20795;DHT22;28087;-33.874;151.240;2022-12-18T07:52:58;18.70;99.90
20795;DHT22;28087;-33.874;151.240;2022-12-18T08:09:05;18.40;99.90
20795;DHT22;28087;-33.874;151.240;2022-12-18T08:11:41;18.50;99.90
20795;DHT22;28087;-33.874;151.240;2022-12-18T08:14:17;18.40;99.90
20795;DHT22;28087;-33.874;151.240;2022-12-18T08:16:58;18.40;99.90
20795;DHT22;28087;-33.874;151.240;2022-12-18T08:32:39;18.30;99.90
20795;DHT22;28087;-33.874;151.240;2022-12-18T12:46:57;17.40;99.90
20795;DHT22;28087;-33.874;151.240;2022-12-18T12:49:36;17.40;99.90
20795;DHT22;28087;-33.874;151.240;2022-12-18T12:52:19;17.40;99.90
20795;DHT22;28087;-33.874;151.240;2022-12-18T12:54:57;17.10;99.90
20795;DHT22;28087;-33.874;151.240;2022-12-18T12:57:36;17.20;99.90
20795;DHT22;28087;-33.874;151.240;2022-12-18T13:00:16;17.10;99.90
20795;DHT22;28087;-33.874;151.240;2022-12-18T13:02:59;17.10;99.90
20795;DHT22;28087;-33.874;151.240;2022-12-18T13:05:43;17.10;99.90
20795;DHT22;28087;-33.874;151.240;2022-12-18T13:08:27;17.20;99.90
20795;DHT22;28087;-33.874;151.240;2022-12-18T13:11:28;16.90;99.90
20795;DHT22;28087;-33.874;151.240;2022-12-18T13:14:32;17.30;99.90
20795;DHT22;28087;-33.874;151.240;2022-12-18T13:17:30;17.20;99.90
20795;DHT22;28087;-33.874;151.240;2022-12-18T13:20:13;17.20;99.90
20795;DHT22;28087;-33.874;151.240;2022-12-18T13:22:50;17.20;99.90
20795;DHT22;28087;-33.874;151.240;2022-12-18T13:25:31;17.20;99.90
20795;DHT22;28087;-33.874;151.240;2022-12-18T13:28:10;17.10;99.90
20795;DHT22;28087;-33.874;151.240;2022-12-18T13:30:55;17.20;99.90
20795;DHT22;28087;-33.874;151.240;2022-12-18T13:33:42;17.20;99.90
20795;DHT22;28087;-33.874;151.240;2022-12-18T13:36:41;17.20;99.90
20795;DHT22;28087;-33.874;151.240;2022-12-18T13:39:33;17.20;99.90
20795;DHT22;28087;-33.874;151.240;2022-12-18T13:42:39;17.20;99.90
20795;DHT22;28087;-33.874;151.240;2022-12-18T13:45:43;17.20;99.90
20795;DHT22;28087;-33.874;151.240;2022-12-18T13:48:23;17.20;99.90
20795;DHT22;28087;-33.874;151.240;2022-12-18T13:51:03;17.20;99.90
20795;DHT22;28087;-33.874;151.240;2022-12-18T13:53:44;17.20;99.90
20795;DHT22;28087;-33.874;151.240;2022-12-18T13:56:24;17.30;99.90
20795;DHT22;28087;-33.874;151.240;2022-12-18T13:59:19;17.30;99.90
20795;DHT22;28087;-33.874;151.240;2022-12-18T14:01:57;17.40;99.90
20795;DHT22;28087;-33.874;151.240;2022-12-18T14:04:35;17.40;99.90
20795;DHT22;28087;-33.874;151.240;2022-12-18T14:07:14;17.40;99.90
20795;DHT22;28087;-33.874;151.240;2022-12-18T14:09:54;17.30;99.90
20795;DHT22;28087;-33.874;151.240;2022-12-18T14:12:52;17.30;99.90
20795;DHT22;28087;-33.874;151.240;2022-12-18T14:15:35;17.30;99.90
20795;DHT22;28087;-33.874;151.240;2022-12-18T14:18:21;17.30;99.90
20795;DHT22;28087;-33.874;151.240;2022-12-18T14:21:00;17.40;99.90
20795;DHT22;28087;-33.874;151.240;2022-12-18T14:23:37;17.50;99.90
20795;DHT22;28087;-33.874;151.240;2022-12-18T14:26:26;17.40;99.90
20795;DHT22;28087;-33.874;151.240;2022-12-18T14:29:19;17.40;99.90
20795;DHT22;28087;-33.874;151.240;2022-12-18T14:32:12;17.40;99.90
20795;DHT22;28087;-33.874;151.240;2022-12-18T14:34:50;17.40;99.90
20795;DHT22;28087;-33.874;151.240;2022-12-18T14:37:27;17.40;99.90
20795;DHT22;28087;-33.874;151.240;2022-12-18T14:40:04;17.30;99.90
20795;DHT22;28087;-33.874;151.240;2022-12-18T14:42:43;17.30;99.90
20795;DHT22;28087;-33.874;151.240;2022-12-18T14:45:39;17.40;99.90
20795;DHT22;28087;-33.874;151.240;2022-12-18T14:48:17;17.40;99.90
20795;DHT22;28087;-33.874;151.240;2022-12-18T14:50:59;17.30;99.90
20795;DHT22;28087;-33.874;151.240;2022-12-18T14:53:38;17.40;99.90
20795;DHT22;28087;-33.874;151.240;2022-12-18T14:56:25;17.40;99.90
20795;DHT22;28087;-33.874;151.240;2022-12-18T14:59:04;17.40;99.90
20795;DHT22;28087;-33.874;151.240;2022-12-18T15:01:45;17.40;99.90
20795;DHT22;28087;-33.874;151.240;2022-12-18T15:04:27;17.40;99.90
20795;DHT22;28087;-33.874;151.240;2022-12-18T15:07:09;17.40;99.90
20795;DHT22;28087;-33.874;151.240;2022-12-18T15:10:04;17.50;99.90
20795;DHT22;28087;-33.874;151.240;2022-12-18T15:12:41;17.50;99.90
20795;DHT22;28087;-33.874;151.240;2022-12-18T15:15:47;17.50;99.90
20795;DHT22;28087;-33.874;151.240;2022-12-18T15:18:27;17.50;99.90
20795;DHT22;28087;-33.874;151.240;2022-12-18T15:21:10;17.50;99.90
20795;DHT22;28087;-33.874;151.240;2022-12-18T15:23:48;17.60;99.90
20795;DHT22;28087;-33.874;151.240;2022-12-18T15:26:25;17.60;99.90
20795;DHT22;28087;-33.874;151.240;2022-12-18T15:29:01;17.60;99.90
20795;DHT22;28087;-33.874;151.240;2022-12-18T15:32:00;17.70;99.90
20795;DHT22;28087;-33.874;151.240;2022-12-18T15:34:39;17.70;99.90
20795;DHT22;28087;-33.874;151.240;2022-12-18T15:37:15;17.70;99.90
20795;DHT22;28087;-33.874;151.240;2022-12-18T16:40:43;17.50;99.90
20795;DHT22;28087;-33.874;151.240;2022-12-18T16:43:31;17.70;99.90
20795;DHT22;28087;-33.874;151.240;2022-12-18T16:46:07;17.70;99.90
20795;DHT22;28087;-33.874;151.240;2022-12-18T17:04:40;17.60;99.90
20795;DHT22;28087;-33.874;151.240;2022-12-18T17:07:17;17.50;99.90
20795;DHT22;28087;-33.874;151.240;2022-12-18T17:09:54;17.50;99.90
20795;DHT22;28087;-33.874;151.240;2022-12-18T17:12:30;17.60;99.90
20795;DHT22;28087;-33.874;151.240;2022-12-18T17:15:07;17.50;99.90
20795;DHT22;28087;-33.874;151.240;2022-12-18T17:17:43;17.50;99.90
20795;DHT22;28087;-33.874;151.240;2022-12-18T17:20:18;17.50;99.90
20795;DHT22;28087;-33.874;151.240;2022-12-18T17:22:57;17.50;99.90
20795;DHT22;28087;-33.874;151.240;2022-12-18T17:25:34;17.50;99.90
20795;DHT22;28087;-33.874;151.240;2022-12-18T17:28:13;17.50;99.90
20795;DHT22;28087;-33.874;151.240;2022-12-18T17:30:49;17.50;99.90
20795;DHT22;28087;-33.874;151.240;2022-12-18T17:33:25;17.50;99.90
20795;DHT22;28087;-33.874;151.240;2022-12-18T17:36:01;17.30;99.90
20795;DHT22;28087;-33.874;151.240;2022-12-18T17:38:39;17.50;99.90
20795;DHT22;28087;-33.874;151.240;2022-12-18T17:41:15;17.60;99.90
20795;DHT22;28087;-33.874;151.240;2022-12-18T17:43:55;17.60;99.90
20795;DHT22;28087;-33.874;151.240;2022-12-18T17:46:32;17.50;99.90
20795;DHT22;28087;-33.874;151.240;2022-12-18T17:49:08;17.60;99.90
20795;DHT22;28087;-33.874;151.240;2022-12-18T17:51:44;17.60;99.90
20795;DHT22;28087;-33.874;151.240;2022-12-18T17:54:22;17.60;99.90
20795;DHT22;28087;-33.874;151.240;2022-12-18T17:56:59;17.60;99.90
20795;DHT22;28087;-33.874;151.240;2022-12-18T17:59:34;17.60;99.90
20795;DHT22;28087;-33.874;151.240;2022-12-18T18:02:10;17.50;99.90
20795;DHT22;28087;-33.874;151.240;2022-12-18T18:04:47;17.50;99.90
20795;DHT22;28087;-33.874;151.240;2022-12-18T18:07:23;17.60;99.90
20795;DHT22;28087;-33.874;151.240;2022-12-18T18:10:01;17.50;99.90
20795;DHT22;28087;-33.874;151.240;2022-12-18T18:12:37;17.60;99.90
20795;DHT22;28087;-33.874;151.240;2022-12-18T18:15:28;17.50;99.90
20795;DHT22;28087;-33.874;151.240;2022-12-18T18:18:06;17.60;99.90
20795;DHT22;28087;-33.874;151.240;2022-12-18T18:20:44;17.50;99.90
20795;DHT22;28087;-33.874;151.240;2022-12-18T18:23:23;17.40;99.90
20795;DHT22;28087;-33.874;151.240;2022-12-18T18:26:05;17.50;99.90
20795;DHT22;28087;-33.874;151.240;2022-12-18T18:28:42;17.40;99.90
20795;DHT22;28087;-33.874;151.240;2022-12-18T18:31:18;17.40;99.90
20795;DHT22;28087;-33.874;151.240;2022-12-18T18:33:58;17.40;99.90
20795;DHT22;28087;-33.874;151.240;2022-12-18T18:36:34;17.40;99.90
20795;DHT22;28087;-33.874;151.240;2022-12-18T18:39:11;17.40;99.90
20795;DHT22;28087;-33.874;151.240;2022-12-18T18:41:50;17.40;99.90
20795;DHT22;28087;-33.874;151.240;2022-12-18T18:44:26;17.40;99.90
20795;DHT22;28087;-33.874;151.240;2022-12-18T18:47:03;17.40;99.90
20795;DHT22;28087;-33.874;151.240;2022-12-18T18:49:39;17.40;99.90
20795;DHT22;28087;-33.874;151.240;2022-12-18T18:52:14;17.40;99.90
20795;DHT22;28087;-33.874;151.240;2022-12-18T18:54:50;17.40;99.90
20795;DHT22;28087;-33.874;151.240;2022-12-18T18:57:44;17.40;99.90
20795;DHT22;28087;-33.874;151.240;2022-12-18T19:00:22;17.40;99.90
20795;DHT22;28087;-33.874;151.240;2022-12-18T19:02:58;17.40;99.90
20795;DHT22;28087;-33.874;151.240;2022-12-18T19:05:34;17.50;99.90
20795;DHT22;28087;-33.874;151.240;2022-12-18T19:08:16;17.50;99.90
20795;DHT22;28087;-33.874;151.240;2022-12-18T19:10:53;17.50;99.90
20795;DHT22;28087;-33.874;151.240;2022-12-18T19:13:32;17.50;99.90
20795;DHT22;28087;-33.874;151.240;2022-12-18T19:16:08;17.50;99.90
20795;DHT22;28087;-33.874;151.240;2022-12-18T19:18:45;17.50;99.90
20795;DHT22;28087;-33.874;151.240;2022-12-18T19:21:21;17.50;99.90
20795;DHT22;28087;-33.874;151.240;2022-12-18T19:24:00;17.50;99.90
20795;DHT22;28087;-33.874;151.240;2022-12-18T19:26:35;17.50;99.90
20795;DHT22;28087;-33.874;151.240;2022-12-18T19:29:16;17.50;99.90
20795;DHT22;28087;-33.874;151.240;2022-12-18T19:31:53;17.50;99.90
20795;DHT22;28087;-33.874;151.240;2022-12-18T19:34:29;17.50;99.90
20795;DHT22;28087;-33.874;151.240;2022-12-18T19:37:05;17.50;99.90
20795;DHT22;28087;-33.874;151.240;2022-12-18T19:39:42;17.50;99.90
20795;DHT22;28087;-33.874;151.240;2022-12-18T19:42:18;17.50;99.90
20795;DHT22;28087;-33.874;151.240;2022-12-18T19:45:05;17.60;99.90
20795;DHT22;28087;-33.874;151.240;2022-12-18T19:47:42;17.60;99.90
20795;DHT22;28087;-33.874;151.240;2022-12-18T19:50:18;17.60;99.90
20795;DHT22;28087;-33.874;151.240;2022-12-18T19:52:55;17.80;99.90
20795;DHT22;28087;-33.874;151.240;2022-12-18T19:55:31;17.80;99.90
20795;DHT22;28087;-33.874;151.240;2022-12-18T19:58:07;17.90;99.90
20795;DHT22;28087;-33.874;151.240;2022-12-18T20:00:45;17.70;99.90
20795;DHT22;28087;-33.874;151.240;2022-12-18T20:03:22;17.70;99.90
20795;DHT22;28087;-33.874;151.240;2022-12-18T20:06:13;17.80;99.90
20795;DHT22;28087;-33.874;151.240;2022-12-18T20:08:50;17.70;99.90
20795;DHT22;28087;-33.874;151.240;2022-12-18T20:11:31;17.80;99.90
20795;DHT22;28087;-33.874;151.240;2022-12-18T20:14:13;17.90;99.90
20795;DHT22;28087;-33.874;151.240;2022-12-18T20:16:55;17.90;99.90
20795;DHT22;28087;-33.874;151.240;2022-12-18T20:19:31;18.00;99.90
20795;DHT22;28087;-33.874;151.240;2022-12-18T20:22:08;18.00;99.90
20795;DHT22;28087;-33.874;151.240;2022-12-18T20:24:44;18.10;99.90
20795;DHT22;28087;-33.874;151.240;2022-12-18T22:52:13;18.30;99.90
20795;DHT22;28087;-33.874;151.240;2022-12-18T22:54:54;18.30;99.90
20795;DHT22;28087;-33.874;151.240;2022-12-18T22:57:30;18.40;99.90
20795;DHT22;28087;-33.874;151.240;2022-12-18T23:00:09;18.40;99.90
20795;DHT22;28087;-33.874;151.240;2022-12-18T23:02:47;18.40;99.90
20795;DHT22;28087;-33.874;151.240;2022-12-18T23:05:30;18.40;99.90
20795;DHT22;28087;-33.874;151.240;2022-12-18T23:08:06;18.50;99.90
20795;DHT22;28087;-33.874;151.240;2022-12-18T23:10:44;18.40;99.90
20795;DHT22;28087;-33.874;151.240;2022-12-18T23:13:21;18.40;99.90
20795;DHT22;28087;-33.874;151.240;2022-12-18T23:15:56;18.40;99.90
20795;DHT22;28087;-33.874;151.240;2022-12-18T23:18:32;18.30;99.90
20795;DHT22;28087;-33.874;151.240;2022-12-18T23:44:54;19.00;99.90
